Beaux Arts, Washington
Current Conditions -  °F | °C
As of 5:53 PM on Friday 28 Nov 2014 (Local Time) from KBFI Reporting Station
Light Rain Light Rain  
Wind Chill: 41°   Ceiling: 4700
Heat Index: 41°   Visibility: 10mi
Dew Point: 35°   Wind: 0mph
Humidity: 79%   Direction: NA
Pressure: 29.5"   Gusts: NA
Location:  47.6186°N, 122.204°W
Report Text: KBFI 290153Z 00000KT 10SM -RA SCT013 OVC047 05/02 A2950 RMK AO2 SLP990 P0001 T00500017
Loading
Personal Weather Stations






























Interactive Weather Map New forecast layout! Learn more

10-Day Weather Forecast

Advertisements
Track Severe Weather on mobile